Terminal Aerodrome Forecast
Issued by NWS Grand Forks, ND

Home | Current Version | Previous Version | Graphics & Text | Print | Product List | Glossary On
Versions: 1 2 3 4 5 6 7 8 9 10 11 12 13 14 15 16 17
000
FTUS43 KFGF 171200 AAA
TAFGFK
TAF AMD
KGFK 171236Z 1713/1812 VRB06KT P6SM SCT250
     FM171400 01012KT P6SM SCT015
      TEMPO 1714/1718 BKN012
     FM172100 05008KT P6SM SCT250=

USA.gov is the U.S. government's official web portal to all federal, state and local government web resources and services.